createdAt,value
2023-04-18T00:00:30.195Z,8.91
2023-04-18T00:03:03.218Z,8.88
2023-04-18T00:05:34.298Z,8.87
2023-04-18T00:08:05.572Z,8.80
2023-04-18T00:10:36.070Z,8.77
2023-04-18T00:13:08.621Z,8.77
2023-04-18T00:15:38.586Z,8.75
2023-04-18T00:18:09.095Z,8.72
2023-04-18T00:20:39.376Z,8.60
2023-04-18T00:23:10.296Z,8.70
2023-04-18T00:25:41.485Z,8.59
2023-04-18T00:28:14.035Z,8.58
2023-04-18T00:30:44.041Z,8.52
2023-04-18T00:33:14.130Z,8.51
2023-04-18T00:35:44.144Z,8.57
2023-04-18T00:38:14.079Z,8.51
2023-04-18T00:40:44.145Z,8.40
2023-04-18T00:43:19.111Z,8.44
2023-04-18T00:45:49.228Z,8.48
2023-04-18T00:48:20.005Z,8.36
2023-04-18T00:50:50.046Z,8.38
2023-04-18T00:53:20.318Z,8.33
2023-04-18T00:55:51.452Z,8.36
2023-04-18T00:58:24.095Z,8.33
2023-04-18T01:00:54.977Z,8.32
2023-04-18T01:03:25.843Z,8.28
2023-04-18T01:05:57.624Z,8.25
2023-04-18T01:08:28.467Z,8.31
2023-04-18T01:11:01.247Z,8.29
2023-04-18T01:13:33.788Z,8.35
2023-04-18T01:16:06.365Z,8.37
2023-04-18T01:18:37.266Z,8.49
2023-04-18T01:21:08.411Z,8.49
2023-04-18T01:23:39.114Z,8.50
2023-04-18T01:26:11.744Z,8.50
2023-04-18T01:28:41.670Z,8.59
2023-04-18T01:31:11.746Z,8.73
2023-04-18T01:33:41.780Z,8.69
2023-04-18T01:36:11.796Z,8.70
2023-04-18T01:38:41.751Z,8.76
2023-04-18T01:41:14.288Z,8.73
2023-04-18T01:43:46.210Z,8.75
2023-04-18T01:46:16.959Z,8.72
2023-04-18T01:48:46.960Z,8.73
2023-04-18T01:51:16.970Z,8.81
2023-04-18T01:53:46.951Z,8.78
2023-04-18T01:56:19.679Z,8.81
2023-04-18T01:58:49.623Z,8.71
2023-04-18T02:01:19.663Z,8.74
2023-04-18T02:03:49.937Z,8.74
2023-04-18T02:06:20.110Z,8.70
2023-04-18T02:08:51.224Z,8.65
2023-04-18T02:11:23.796Z,8.67
2023-04-18T02:13:53.734Z,8.60
2023-04-18T02:16:23.750Z,8.58
2023-04-18T02:18:54.269Z,8.57
2023-04-18T02:21:24.565Z,8.59
2023-04-18T02:23:54.538Z,8.57
2023-04-18T02:26:27.874Z,8.61
2023-04-18T02:29:01.530Z,8.58
2023-04-18T02:31:33.107Z,8.60
2023-04-18T02:34:03.172Z,8.54
2023-04-18T02:36:33.078Z,8.59
2023-04-18T02:39:03.605Z,8.57
2023-04-18T02:41:37.792Z,8.62
2023-04-18T02:44:08.047Z,8.65
2023-04-18T02:46:41.039Z,8.60
2023-04-18T02:49:15.357Z,8.66
2023-04-18T02:51:45.441Z,8.62
2023-04-18T02:54:15.569Z,8.62
2023-04-18T02:57:02.421Z,8.64
2023-04-18T02:59:52.490Z,8.72
2023-04-18T03:02:42.758Z,8.66
2023-04-18T03:05:31.564Z,8.70
2023-04-18T03:08:04.861Z,8.70
2023-04-18T03:10:34.928Z,8.70
2023-04-18T03:13:07.851Z,8.76
2023-04-18T03:15:37.954Z,8.73
2023-04-18T03:18:08.975Z,8.76
2023-04-18T03:20:41.915Z,8.77
2023-04-18T03:23:11.940Z,8.75
2023-04-18T03:25:42.255Z,8.75
2023-04-18T03:28:14.902Z,8.81
2023-04-18T03:30:44.984Z,8.88
2023-04-18T03:33:15.016Z,8.85
2023-04-18T03:35:45.797Z,8.81
2023-04-18T03:38:15.751Z,8.72
2023-04-18T03:40:46.725Z,8.73
2023-04-18T03:43:27.362Z,8.73
2023-04-18T03:45:57.511Z,8.74
2023-04-18T03:48:29.057Z,8.74
2023-04-18T03:51:02.818Z,8.75
2023-04-18T03:53:34.545Z,8.72
2023-04-18T03:56:04.824Z,8.75
2023-04-18T03:58:51.495Z,8.67
2023-04-18T04:01:23.389Z,8.63
2023-04-18T04:03:55.353Z,8.70
2023-04-18T04:06:26.299Z,8.76
2023-04-18T04:08:56.285Z,8.73
2023-04-18T04:11:28.826Z,8.74
2023-04-18T04:14:02.372Z,8.76
2023-04-18T04:16:40.254Z,8.67
2023-04-18T04:19:10.759Z,8.68
2023-04-18T04:21:46.482Z,8.68
2023-04-18T04:24:20.595Z,8.75
2023-04-18T04:26:51.595Z,8.78
2023-04-18T04:29:29.152Z,8.69
2023-04-18T04:32:01.427Z,8.58
2023-04-18T04:34:41.535Z,8.61
2023-04-18T04:37:14.989Z,8.65
2023-04-18T04:39:57.204Z,8.66
2023-04-18T04:42:46.093Z,8.66
2023-04-18T04:45:26.460Z,8.64
2023-04-18T04:47:56.512Z,8.52
2023-04-18T04:50:26.692Z,8.61
2023-04-18T04:52:56.702Z,8.74
2023-04-18T04:55:26.894Z,8.54
2023-04-18T04:57:57.599Z,8.56
2023-04-18T05:00:59.357Z,8.58
2023-04-18T05:03:29.623Z,8.71
2023-04-18T05:06:00.450Z,8.69
2023-04-18T05:08:30.567Z,8.85
2023-04-18T05:11:01.498Z,8.99
2023-04-18T05:13:31.577Z,9.06
2023-04-18T05:16:04.453Z,8.88
2023-04-18T05:18:35.146Z,8.72
2023-04-18T05:21:05.102Z,8.82
2023-04-18T05:23:37.163Z,8.82
2023-04-18T05:26:07.570Z,8.71
2023-04-18T05:28:37.635Z,8.87
2023-04-18T05:31:10.255Z,8.79
2023-04-18T05:33:40.223Z,8.66
2023-04-18T05:36:10.653Z,8.80
2023-04-18T05:38:40.574Z,8.83
2023-04-18T05:41:10.517Z,8.54
2023-04-18T05:43:41.792Z,8.66
2023-04-18T05:46:15.616Z,8.70
2023-04-18T05:48:45.700Z,8.49
2023-04-18T05:51:15.876Z,8.66
2023-04-18T05:53:45.825Z,8.78
2023-04-18T05:56:15.856Z,8.81
2023-04-18T05:58:46.960Z,8.85
2023-04-18T06:01:21.522Z,8.77
2023-04-18T06:03:51.845Z,8.73
2023-04-18T06:06:22.164Z,8.77
2023-04-18T06:08:55.114Z,8.67
2023-04-18T06:11:25.113Z,8.76
2023-04-18T06:13:56.240Z,8.73
2023-04-18T06:16:29.402Z,8.76
2023-04-18T06:19:01.237Z,8.77
2023-04-18T06:21:31.732Z,8.80
2023-04-18T06:24:01.771Z,8.80
2023-04-18T06:26:32.808Z,8.89
2023-04-18T06:29:02.742Z,8.81
2023-04-18T06:31:35.500Z,9.00
2023-04-18T06:34:05.466Z,8.98
2023-04-18T06:36:35.622Z,9.02
2023-04-18T06:39:06.100Z,9.12
2023-04-18T06:41:36.064Z,9.11
2023-04-18T06:44:06.060Z,9.13
2023-04-18T06:46:38.622Z,8.96
2023-04-18T06:49:08.761Z,8.91
2023-04-18T06:51:38.731Z,9.11
2023-04-18T06:54:08.837Z,9.26
2023-04-18T06:56:38.924Z,9.27
2023-04-18T06:59:09.250Z,9.28
2023-04-18T07:01:44.835Z,9.25
2023-04-18T07:04:15.535Z,9.10
2023-04-18T07:06:46.393Z,9.14
2023-04-18T07:09:16.470Z,9.17
2023-04-18T07:11:46.413Z,9.33
2023-04-18T07:14:16.596Z,9.26
2023-04-18T07:16:49.697Z,9.39
2023-04-18T07:19:20.156Z,9.49
2023-04-18T07:21:50.189Z,9.85
2023-04-18T07:24:20.226Z,9.92
2023-04-18T07:26:50.188Z,10.12
2023-04-18T07:29:20.598Z,9.86
2023-04-18T07:31:54.894Z,9.97
2023-04-18T07:34:25.980Z,9.86
2023-04-18T07:36:56.249Z,9.85
2023-04-18T07:39:26.392Z,9.82
2023-04-18T07:41:57.741Z,9.91
2023-04-18T07:44:28.100Z,10.04
2023-04-18T07:47:01.056Z,10.08
2023-04-18T07:49:31.043Z,10.24
2023-04-18T07:52:01.020Z,10.29
2023-04-18T07:54:30.997Z,10.51
2023-04-18T07:57:02.670Z,10.59
2023-04-18T07:59:32.654Z,10.71
2023-04-18T08:02:05.624Z,10.79
2023-04-18T08:04:35.894Z,10.71
2023-04-18T08:07:06.008Z,11.04
2023-04-18T08:09:36.025Z,11.03
2023-04-18T08:12:06.153Z,10.92
2023-04-18T08:14:36.152Z,10.87
2023-04-18T08:17:08.748Z,10.84
2023-04-18T08:19:38.696Z,10.81
2023-04-18T08:22:12.161Z,10.76
2023-04-18T08:24:57.230Z,10.73
2023-04-18T08:27:32.358Z,10.69
2023-04-18T08:30:04.267Z,10.68
2023-04-18T08:32:39.279Z,10.79
2023-04-18T08:35:09.900Z,10.65
2023-04-18T08:37:39.938Z,10.79
2023-04-18T08:40:11.262Z,10.99
2023-04-18T08:42:41.349Z,11.20
2023-04-18T08:45:13.928Z,11.43
2023-04-18T08:47:46.641Z,11.28
2023-04-18T08:50:16.736Z,11.17
2023-04-18T08:52:50.429Z,10.95
2023-04-18T08:55:22.475Z,11.04
2023-04-18T08:57:54.300Z,11.04
2023-04-18T09:00:24.924Z,11.08
2023-04-18T09:02:58.618Z,11.17
2023-04-18T09:05:30.410Z,11.18
2023-04-18T09:08:00.578Z,11.20
2023-04-18T09:10:33.149Z,11.58
2023-04-18T09:13:05.473Z,12.04
2023-04-18T09:15:35.459Z,12.00
2023-04-18T09:18:12.896Z,12.64
2023-04-18T09:20:44.853Z,12.86
2023-04-18T09:23:17.202Z,13.01
2023-04-18T09:25:49.224Z,13.26
2023-04-18T09:28:27.161Z,13.22
2023-04-18T09:30:59.598Z,13.09
2023-04-18T09:33:34.920Z,13.10
2023-04-18T09:36:21.606Z,13.67
2023-04-18T09:38:56.230Z,13.61
2023-04-18T09:41:27.756Z,14.00
2023-04-18T09:44:14.909Z,14.18
2023-04-18T09:46:47.601Z,13.96
2023-04-18T09:49:20.909Z,13.77
2023-04-18T09:51:54.287Z,13.83
2023-04-18T09:54:26.933Z,13.34
2023-04-18T09:56:59.028Z,13.11
2023-04-18T09:59:39.637Z,12.70
2023-04-18T10:02:17.495Z,12.88
2023-04-18T10:04:52.254Z,12.74
2023-04-18T10:07:24.968Z,12.55
2023-04-18T10:09:56.396Z,12.50
2023-04-18T10:12:27.178Z,12.66
2023-04-18T10:14:58.462Z,12.59
2023-04-18T10:17:30.513Z,12.30
2023-04-18T10:20:11.438Z,12.33
2023-04-18T10:22:41.409Z,12.35
2023-04-18T10:25:11.874Z,12.51
2023-04-18T10:27:57.728Z,12.78
2023-04-18T10:30:56.356Z,12.88
2023-04-18T10:33:31.804Z,13.23
2023-04-18T10:36:07.930Z,13.50
2023-04-18T10:38:45.518Z,13.62
2023-04-18T10:41:24.250Z,13.77
2023-04-18T10:44:27.810Z,13.67
2023-04-18T10:47:24.718Z,13.65
2023-04-18T10:50:06.911Z,13.88
2023-04-18T10:52:39.881Z,13.99
2023-04-18T10:55:29.058Z,13.75
2023-04-18T10:58:01.583Z,13.89
2023-04-18T11:00:34.112Z,13.95
2023-04-18T11:03:04.627Z,14.22
2023-04-18T11:05:34.766Z,13.94
2023-04-18T11:08:08.009Z,13.91
2023-04-18T11:10:38.060Z,13.82
2023-04-18T11:13:08.673Z,13.85
2023-04-18T11:15:40.088Z,13.63
2023-04-18T11:18:12.402Z,13.79
2023-04-18T11:20:49.490Z,13.76
2023-04-18T11:23:25.217Z,13.81
2023-04-18T11:25:58.409Z,14.09
2023-04-18T11:28:29.481Z,14.49
2023-04-18T11:31:02.986Z,14.45
2023-04-18T11:33:33.153Z,14.55
2023-04-18T11:36:03.221Z,15.35
2023-04-18T11:38:35.995Z,15.05
2023-04-18T11:41:06.104Z,15.11
2023-04-18T11:43:36.831Z,15.11
2023-04-18T11:46:06.909Z,14.73
2023-04-18T11:48:40.831Z,14.81
2023-04-18T11:51:31.862Z,14.64
2023-04-18T11:54:04.622Z,14.67
2023-04-18T11:56:36.634Z,14.52
2023-04-18T11:59:12.056Z,14.43
2023-04-18T12:01:42.073Z,14.41
2023-04-18T12:04:12.348Z,14.31
2023-04-18T12:06:49.340Z,14.31
2023-04-18T12:09:24.687Z,14.29
2023-04-18T12:12:01.782Z,14.25
2023-04-18T12:14:32.737Z,14.22
2023-04-18T12:17:06.782Z,14.94
2023-04-18T12:19:37.399Z,14.84
2023-04-18T12:22:09.488Z,14.90
2023-04-18T12:24:42.112Z,15.00
2023-04-18T12:27:12.267Z,15.05
2023-04-18T12:29:42.532Z,15.21
2023-04-18T12:32:12.588Z,15.31
2023-04-18T12:34:42.578Z,15.68
2023-04-18T12:37:12.600Z,15.50
2023-04-18T12:39:45.120Z,15.43
2023-04-18T12:42:15.090Z,15.04
2023-04-18T12:44:47.607Z,14.83
2023-04-18T12:47:18.075Z,14.84
2023-04-18T12:49:48.117Z,14.92
2023-04-18T12:52:18.377Z,14.91
2023-04-18T12:54:51.008Z,14.90
2023-04-18T12:57:21.227Z,15.25
2023-04-18T12:59:51.269Z,15.39
2023-04-18T13:02:22.111Z,15.34
2023-04-18T13:04:53.481Z,15.29
2023-04-18T13:07:23.684Z,15.45
2023-04-18T13:09:56.309Z,15.81
2023-04-18T13:12:26.255Z,16.25
2023-04-18T13:14:56.413Z,16.29
2023-04-18T13:17:26.867Z,15.91
2023-04-18T13:19:57.012Z,16.06
2023-04-18T13:22:28.530Z,16.07
2023-04-18T13:25:01.117Z,15.98
2023-04-18T13:27:31.134Z,15.93
2023-04-18T13:30:01.303Z,15.85
2023-04-18T13:32:31.790Z,15.98
2023-04-18T13:35:03.238Z,15.98
2023-04-18T13:37:33.839Z,16.31
2023-04-18T13:40:08.070Z,16.09
2023-04-18T13:42:39.804Z,15.88
2023-04-18T13:45:10.525Z,15.81
2023-04-18T13:47:40.739Z,15.75
2023-04-18T13:50:12.133Z,15.78
2023-04-18T13:52:42.154Z,16.03
2023-04-18T13:55:16.363Z,17.12
2023-04-18T13:57:46.524Z,17.99
2023-04-18T14:00:19.303Z,18.68
2023-04-18T14:02:49.382Z,18.63
2023-04-18T14:05:19.646Z,19.72
2023-04-18T14:07:49.654Z,24.30
2023-04-18T14:10:22.287Z,26.37
2023-04-18T14:12:52.260Z,27.80
2023-04-18T14:15:22.472Z,26.72
2023-04-18T14:17:52.775Z,27.42
2023-04-18T14:20:22.992Z,21.26
2023-04-18T14:22:53.337Z,19.86
2023-04-18T14:25:26.313Z,18.33
2023-04-18T14:28:09.666Z,17.61
2023-04-18T14:30:40.652Z,17.69
2023-04-18T14:33:11.414Z,17.53
2023-04-18T14:35:41.524Z,17.07
2023-04-18T14:38:11.523Z,16.79
2023-04-18T14:40:44.162Z,16.75
2023-04-18T14:43:14.240Z,16.59
2023-04-18T14:45:44.193Z,16.61
2023-04-18T14:48:14.260Z,16.68
2023-04-18T14:50:44.603Z,17.33
2023-04-18T14:53:14.925Z,18.31
2023-04-18T14:55:47.950Z,19.00
2023-04-18T14:58:17.940Z,19.94
2023-04-18T15:00:49.980Z,20.61
2023-04-18T15:03:20.232Z,20.64
2023-04-18T15:05:50.384Z,18.65
2023-04-18T15:08:20.816Z,17.67
2023-04-18T15:10:53.409Z,17.63
2023-04-18T15:13:23.437Z,17.32
2023-04-18T15:15:55.071Z,17.12
2023-04-18T15:18:25.471Z,17.79
2023-04-18T15:20:57.145Z,18.47
2023-04-18T15:23:27.747Z,18.39
2023-04-18T15:26:00.475Z,18.03
2023-04-18T15:28:30.609Z,18.64
2023-04-18T15:31:00.821Z,17.50
2023-04-18T15:33:30.873Z,17.44
2023-04-18T15:36:00.767Z,17.28
2023-04-18T15:38:32.850Z,17.38
2023-04-18T15:41:05.755Z,21.45
2023-04-18T15:43:35.891Z,23.45
2023-04-18T15:46:06.432Z,20.11
2023-04-18T15:48:36.610Z,18.78
2023-04-18T15:51:07.265Z,18.17
2023-04-18T15:53:37.199Z,18.15
2023-04-18T15:56:10.121Z,19.18
2023-04-18T15:58:40.132Z,18.27
2023-04-18T16:01:10.551Z,17.94
2023-04-18T16:03:40.589Z,17.26
2023-04-18T16:06:11.152Z,17.00
2023-04-18T16:08:41.347Z,16.77
2023-04-18T16:11:13.910Z,16.71
2023-04-18T16:13:43.939Z,16.92
2023-04-18T16:16:13.936Z,16.46
2023-04-18T16:18:44.018Z,16.36
2023-04-18T16:21:16.491Z,16.28
2023-04-18T16:23:46.665Z,16.25
2023-04-18T16:26:19.404Z,16.07
2023-04-18T16:28:49.455Z,15.91
2023-04-18T16:31:19.851Z,15.89
2023-04-18T16:33:52.574Z,15.82
2023-04-18T16:36:22.821Z,15.76
2023-04-18T16:38:52.833Z,15.74
2023-04-18T16:41:25.461Z,15.75
2023-04-18T16:43:55.411Z,15.71
2023-04-18T16:46:25.729Z,15.78
2023-04-18T16:48:55.818Z,15.74
2023-04-18T16:51:26.365Z,15.74
2023-04-18T16:53:56.636Z,15.61
2023-04-18T16:56:29.354Z,15.62
2023-04-18T16:58:59.328Z,15.61
2023-04-18T17:01:29.746Z,15.49
2023-04-18T17:04:01.017Z,15.53
2023-04-18T17:06:32.156Z,15.54
2023-04-18T17:09:02.303Z,15.67
2023-04-18T17:11:39.547Z,15.85
2023-04-18T17:14:10.506Z,16.12
2023-04-18T17:16:42.382Z,16.08
2023-04-18T17:19:13.223Z,15.85
2023-04-18T17:21:44.183Z,15.97
2023-04-18T17:24:14.510Z,15.95
2023-04-18T17:26:47.827Z,15.68
2023-04-18T17:29:32.294Z,15.77
2023-04-18T17:32:02.765Z,15.60
2023-04-18T17:34:32.867Z,15.41
2023-04-18T17:37:03.214Z,15.33
2023-04-18T17:39:34.589Z,15.13
2023-04-18T17:42:07.361Z,15.16
2023-04-18T17:44:39.838Z,15.10
2023-04-18T17:47:10.062Z,14.99
2023-04-18T17:49:40.197Z,14.95
2023-04-18T17:52:10.247Z,14.78
2023-04-18T17:54:40.232Z,14.73
2023-04-18T17:57:12.946Z,14.61
2023-04-18T17:59:42.980Z,14.59
2023-04-18T18:02:13.426Z,14.60
2023-04-18T18:04:43.560Z,14.62
2023-04-18T18:07:13.684Z,14.54
2023-04-18T18:09:45.589Z,14.47
2023-04-18T18:12:18.175Z,14.33
2023-04-18T18:14:48.149Z,14.25
2023-04-18T18:17:18.085Z,14.23
2023-04-18T18:19:48.086Z,14.10
2023-04-18T18:22:18.587Z,13.99
2023-04-18T18:24:48.559Z,13.87
2023-04-18T18:27:21.870Z,13.75
2023-04-18T18:29:51.864Z,13.67
2023-04-18T18:32:22.043Z,13.67
2023-04-18T18:34:52.151Z,13.64
2023-04-18T18:37:25.524Z,13.63
2023-04-18T18:39:57.378Z,13.51
2023-04-18T18:42:30.077Z,13.53
2023-04-18T18:45:01.646Z,13.54
2023-04-18T18:47:32.208Z,13.54
2023-04-18T18:50:02.264Z,13.50
2023-04-18T18:52:34.223Z,13.54
2023-04-18T18:55:04.752Z,13.51
2023-04-18T18:57:37.831Z,13.48
2023-04-18T19:00:10.045Z,13.45
2023-04-18T19:02:40.444Z,13.39
2023-04-18T19:05:12.823Z,13.36
2023-04-18T19:07:44.422Z,13.40
2023-04-18T19:10:17.055Z,13.31
2023-04-18T19:12:50.011Z,13.25
2023-04-18T19:15:20.098Z,13.22
2023-04-18T19:17:50.267Z,13.21
2023-04-18T19:20:29.202Z,13.19
2023-04-18T19:23:01.145Z,13.22
2023-04-18T19:25:36.809Z,13.21
2023-04-18T19:28:09.630Z,13.22
2023-04-18T19:30:48.147Z,13.16
2023-04-18T19:33:18.219Z,13.12
2023-04-18T19:35:48.200Z,13.14
2023-04-18T19:38:18.174Z,13.01
2023-04-18T19:40:48.725Z,12.99
2023-04-18T19:43:21.384Z,12.95
2023-04-18T19:45:55.172Z,12.91
2023-04-18T19:48:25.475Z,12.90
2023-04-18T19:50:55.540Z,12.86
2023-04-18T19:53:26.012Z,12.88
2023-04-18T19:56:11.623Z,12.89
2023-04-18T19:58:49.012Z,12.88
2023-04-18T20:01:21.134Z,12.83
2023-04-18T20:03:51.410Z,12.83
2023-04-18T20:06:21.619Z,12.83
2023-04-18T20:08:51.689Z,12.72
2023-04-18T20:11:22.371Z,12.64
2023-04-18T20:13:56.750Z,12.58
2023-04-18T20:16:27.042Z,12.55
2023-04-18T20:18:57.099Z,12.58
2023-04-18T20:21:27.401Z,12.60
2023-04-18T20:27:07.835Z,12.62
2023-04-18T20:29:40.947Z,12.64
2023-04-18T20:32:11.205Z,12.69
2023-04-18T20:34:41.472Z,12.59
2023-04-18T20:37:11.518Z,12.59
2023-04-18T20:39:42.286Z,12.57
2023-04-18T20:42:14.406Z,12.57
2023-04-18T20:44:47.785Z,12.49
2023-04-18T20:47:18.180Z,12.46
2023-04-18T20:49:48.175Z,12.39
2023-04-18T20:52:18.156Z,12.37
2023-04-18T20:54:48.217Z,12.41
2023-04-18T20:57:18.248Z,12.42
2023-04-18T20:59:50.861Z,12.38
2023-04-18T21:02:21.246Z,12.33
2023-04-18T21:04:51.291Z,12.39
2023-04-18T21:07:24.550Z,12.28
2023-04-18T21:09:54.685Z,12.25
2023-04-18T21:12:24.691Z,12.25
2023-04-18T21:14:57.354Z,12.20
2023-04-18T21:17:27.427Z,12.20
2023-04-18T21:19:58.142Z,12.17
2023-04-18T21:22:28.257Z,12.21
2023-04-18T21:24:58.265Z,12.23
2023-04-18T21:27:28.196Z,12.08
2023-04-18T21:30:02.371Z,12.10
2023-04-18T21:32:34.247Z,12.15
2023-04-18T21:35:04.323Z,12.21
2023-04-18T21:37:34.361Z,12.09
2023-04-18T21:40:04.728Z,12.11
2023-04-18T21:42:35.261Z,12.05
2023-04-18T21:45:09.480Z,12.07
2023-04-18T21:47:39.636Z,12.11
2023-04-18T21:50:11.426Z,12.07
2023-04-18T21:52:41.428Z,12.02
2023-04-18T21:55:12.359Z,12.00
2023-04-18T21:57:42.371Z,11.98
2023-04-18T22:00:16.719Z,12.00
2023-04-18T22:02:47.275Z,12.00
2023-04-18T22:05:17.974Z,11.94
2023-04-18T22:07:57.567Z,11.89
2023-04-18T22:10:28.431Z,11.87
2023-04-18T22:12:58.573Z,11.87
2023-04-18T22:15:31.245Z,11.91
2023-04-18T22:18:01.283Z,11.89
2023-04-18T22:20:31.728Z,11.89
2023-04-18T22:23:02.010Z,11.92
2023-04-18T22:25:32.018Z,11.79
2023-04-18T22:28:02.286Z,11.77
2023-04-18T22:30:35.045Z,11.81
2023-04-18T22:33:05.014Z,11.77
2023-04-18T22:35:35.004Z,11.79
2023-04-18T22:38:04.971Z,11.75
2023-04-18T22:40:35.006Z,11.76
2023-04-18T22:43:05.025Z,11.70
2023-04-18T22:45:38.693Z,11.71
2023-04-18T22:48:11.589Z,11.70
2023-04-18T22:50:42.864Z,11.65
2023-04-18T22:53:14.348Z,11.62
2023-04-18T22:55:45.168Z,11.56
2023-04-18T22:58:15.237Z,11.60
2023-04-18T23:00:47.987Z,11.61
2023-04-18T23:03:18.058Z,11.71
2023-04-18T23:05:48.157Z,11.64
2023-04-18T23:08:18.870Z,11.60
2023-04-18T23:10:49.035Z,11.59
2023-04-18T23:13:19.058Z,11.61
2023-04-18T23:15:51.689Z,11.60
2023-04-18T23:18:21.796Z,11.53
2023-04-18T23:20:51.803Z,11.55
2023-04-18T23:23:21.801Z,11.50
2023-04-18T23:25:52.273Z,11.60
2023-04-18T23:28:22.427Z,11.56
2023-04-18T23:30:55.586Z,11.60
2023-04-18T23:33:25.579Z,11.61
2023-04-18T23:35:55.682Z,11.56
2023-04-18T23:38:25.618Z,11.55
2023-04-18T23:40:55.745Z,11.49
2023-04-18T23:43:25.773Z,11.56
2023-04-18T23:45:58.354Z,11.46
2023-04-18T23:48:28.391Z,11.35
2023-04-18T23:50:58.377Z,11.31
2023-04-18T23:53:28.393Z,11.43
2023-04-18T23:55:58.423Z,11.38
2023-04-18T23:58:28.689Z,11.38
